FZRF

Kalemie Airport

Airport
ICAO code
FZRF
IATA Code
FMI
Summary
ICAO Region
AFI
Location

, Katanga

Serving
Kalemie
Elevation
2569 ft
Coordinates
5° 52' 32" S , 29° 15' 0" E
Metar
Observation
FZRF 131400Z 17006KT CAVOK 26/16 Q1013 NOSIG
Station
Kalemie
Date/Time
2022-08-13 14:00:00
Wind direction
170°
Wind speed
06 kts
Lowest cloud amount
clouds and visibility OK
Temperature
26°C
Dew point
16°C
Humidity
54%
QNH
1013 hPa
Weather condition
n/a

Runways

Designator Length Width Surface Rops
6/24 1750 27 ASP No/No

Airport map

Aerial View

SKYbrary Partners:

Safety knowledge contributed by: